createdAt,value
2019-03-04T19:29:40.699Z,83.81
2019-03-04T19:30:40.692Z,84.19
2019-03-04T19:32:34.041Z,84.38
2019-03-04T19:33:33.998Z,83.90
2019-03-04T19:35:27.604Z,84.19
2019-03-04T19:36:27.590Z,84.00
2019-03-04T19:38:21.499Z,84.09
2019-03-04T19:39:20.937Z,84.38
2019-03-04T19:41:15.385Z,84.19
2019-03-04T19:42:15.874Z,84.19
2019-03-04T19:44:09.713Z,84.19
2019-03-04T19:45:09.661Z,84.28
2019-03-04T19:47:04.080Z,84.38
2019-03-04T19:48:04.039Z,84.66
2019-03-04T19:49:57.440Z,84.66
2019-03-04T19:50:57.376Z,84.56
2019-03-04T19:52:58.150Z,84.56
2019-03-04T19:53:51.744Z,84.56
2019-03-04T19:55:45.394Z,85.04
2019-03-04T19:56:45.293Z,84.38
2019-03-04T19:58:38.728Z,85.24
2019-03-04T19:59:38.666Z,85.14
2019-03-04T20:01:34.270Z,85.04
2019-03-04T20:02:34.236Z,85.42
2019-03-04T20:04:29.354Z,84.56
2019-03-04T20:05:29.318Z,85.00
2019-03-04T20:06:29.307Z,85.00
2019-03-04T20:07:29.303Z,84.56
2019-03-04T20:08:37.745Z,84.56
2019-03-04T20:09:29.477Z,84.56
2019-03-04T20:10:32.052Z,84.95
2019-03-04T20:11:29.261Z,84.62
2019-03-04T20:12:29.249Z,84.33
2019-03-04T20:13:29.240Z,84.76
2019-03-04T20:14:29.232Z,84.33
2019-03-04T20:15:29.250Z,83.67
2019-03-04T20:16:29.215Z,83.90
2019-03-04T20:17:29.233Z,83.76
2019-03-04T20:18:29.213Z,83.58
2019-03-04T20:19:29.201Z,83.86
2019-03-04T20:20:29.192Z,84.00
2019-03-04T20:21:29.177Z,83.62
2019-03-04T20:22:29.175Z,84.28
2019-03-04T20:23:29.155Z,83.62
2019-03-04T20:24:29.156Z,84.38
2019-03-04T20:25:29.439Z,84.09
2019-03-04T20:26:29.126Z,84.38
2019-03-04T20:27:31.572Z,84.00
2019-03-04T20:28:39.749Z,83.62
2019-03-04T20:29:34.507Z,83.81
2019-03-04T20:30:29.097Z,83.81
2019-03-04T20:31:29.089Z,83.62
2019-03-04T20:32:29.071Z,84.38
2019-03-04T20:33:29.070Z,84.47
2019-03-04T20:34:29.051Z,84.28
2019-03-04T20:35:29.052Z,84.19
2019-03-04T20:36:29.086Z,84.19
2019-03-04T20:37:29.044Z,84.19
2019-03-04T20:38:29.020Z,84.66
2019-03-04T20:39:29.019Z,84.38
2019-03-04T20:40:29.012Z,84.38
2019-03-04T20:41:28.993Z,83.90
2019-03-04T20:42:29.001Z,83.52
2019-03-04T20:43:28.987Z,83.56
2019-03-04T20:44:28.997Z,83.52
2019-03-04T20:45:28.967Z,83.47
2019-03-04T20:46:28.954Z,83.56
2019-03-04T20:47:28.949Z,83.37
2019-03-04T20:48:28.940Z,83.09
2019-03-04T20:49:28.946Z,83.09
2019-03-04T20:50:28.938Z,83.18
2019-03-04T20:51:28.918Z,83.37
2019-03-04T20:52:28.932Z,83.47
2019-03-04T20:53:28.900Z,84.33
2019-03-04T20:54:28.889Z,84.42
2019-03-04T20:55:28.884Z,84.42
2019-03-04T20:56:28.875Z,84.23
2019-03-04T20:57:28.860Z,84.89
2019-03-04T20:58:28.849Z,84.23
2019-03-04T20:59:28.844Z,84.61
2019-03-04T21:00:28.835Z,84.80
2019-03-04T21:01:28.837Z,84.80
2019-03-04T21:02:28.818Z,85.28
2019-03-04T21:03:34.994Z,84.99
2019-03-04T21:04:28.806Z,85.56
2019-03-04T21:05:28.891Z,85.47
2019-03-04T21:06:28.787Z,85.56
2019-03-04T21:07:28.776Z,85.85
2019-03-04T21:08:28.772Z,85.66
2019-03-04T21:09:28.767Z,85.66
2019-03-04T21:10:28.745Z,85.37
2019-03-04T21:11:28.746Z,86.32
2019-03-04T21:12:28.740Z,86.04
2019-03-04T21:13:35.296Z,86.22
2019-03-04T21:14:28.732Z,86.04
2019-03-04T21:15:28.711Z,86.22
2019-03-04T21:16:28.749Z,86.32
2019-03-04T21:17:28.709Z,86.51
2019-03-04T21:18:28.695Z,86.22
2019-03-04T21:19:28.685Z,86.32
2019-03-04T21:20:28.672Z,86.70
2019-03-04T21:21:28.689Z,86.13
2019-03-04T21:22:28.665Z,86.61
2019-03-04T21:23:28.644Z,87.46
2019-03-04T21:24:28.642Z,87.08
2019-03-04T21:25:28.625Z,87.37
2019-03-04T21:26:28.623Z,87.08
2019-03-04T21:27:28.614Z,87.08
2019-03-04T21:28:28.603Z,87.37
2019-03-04T21:29:30.477Z,87.56
2019-03-04T21:30:28.584Z,87.75
2019-03-04T21:31:28.580Z,87.75
2019-03-04T21:32:28.575Z,87.75
2019-03-04T21:33:28.575Z,87.94
2019-03-04T21:34:28.558Z,87.85
2019-03-04T21:35:28.551Z,88.13
2019-03-04T21:36:28.550Z,87.85
2019-03-04T21:37:28.542Z,88.13
2019-03-04T21:38:28.516Z,87.85
2019-03-04T21:39:28.517Z,88.23
2019-03-04T21:40:28.507Z,88.60
2019-03-04T21:41:28.510Z,88.70
2019-03-04T21:42:28.505Z,88.94
2019-03-04T21:43:28.485Z,88.94
2019-03-04T21:44:28.476Z,88.75
2019-03-04T21:45:28.481Z,89.08
2019-03-04T21:46:28.469Z,89.08
2019-03-04T21:47:28.478Z,88.75
2019-03-04T21:48:28.438Z,88.75
2019-03-04T21:49:28.423Z,89.75
2019-03-04T21:50:28.416Z,89.94
2019-03-04T21:51:37.942Z,89.51
2019-03-04T21:52:28.405Z,90.03
2019-03-04T21:53:28.402Z,89.84
2019-03-04T21:54:28.388Z,89.84
2019-03-04T21:55:28.384Z,89.99
2019-03-04T21:56:28.392Z,89.61
2019-03-04T21:57:28.377Z,89.75
2019-03-04T21:58:28.358Z,89.80
2019-03-04T21:59:28.343Z,89.99
2019-03-04T22:00:28.336Z,89.84
2019-03-04T22:01:28.330Z,90.37
2019-03-04T22:02:28.320Z,90.70
2019-03-04T22:03:28.313Z,90.18
2019-03-04T22:04:28.309Z,90.22
2019-03-04T22:05:28.297Z,89.84
2019-03-04T22:06:28.288Z,89.99
2019-03-04T22:07:28.286Z,89.89
2019-03-04T22:08:28.278Z,89.89
2019-03-04T22:09:28.262Z,89.32
2019-03-04T22:10:28.261Z,88.46
2019-03-04T22:11:28.241Z,88.85
2019-03-04T22:12:28.279Z,87.99
2019-03-04T22:13:28.234Z,88.04
2019-03-04T22:14:28.228Z,88.13
2019-03-04T22:15:28.225Z,87.80
2019-03-04T22:16:28.202Z,87.71
2019-03-04T22:17:28.198Z,88.18
2019-03-04T22:18:28.195Z,87.42
2019-03-04T22:19:28.179Z,87.13
2019-03-04T22:20:28.185Z,87.52
2019-03-04T22:21:28.194Z,87.32
2019-03-04T22:22:28.178Z,87.13
2019-03-04T22:23:28.148Z,87.23
2019-03-04T22:24:28.162Z,87.52
2019-03-04T22:25:28.131Z,87.04
2019-03-04T22:26:28.140Z,87.42
2019-03-04T22:27:28.130Z,87.23
2019-03-04T22:28:28.117Z,86.57
2019-03-04T22:29:28.096Z,86.76
2019-03-04T22:30:28.098Z,86.09
2019-03-04T22:31:28.113Z,85.99
2019-03-04T22:32:28.070Z,85.52
2019-03-04T22:33:28.060Z,85.24
2019-03-04T22:34:28.054Z,85.14
2019-03-04T22:35:28.060Z,84.66
2019-03-04T22:36:28.051Z,84.66
2019-03-04T22:37:28.039Z,84.85
2019-03-04T22:38:28.015Z,84.28
2019-03-04T22:39:28.020Z,84.56
2019-03-04T22:40:27.991Z,84.09
2019-03-04T22:41:28.011Z,85.04
2019-03-04T22:42:27.983Z,84.19
2019-03-04T22:43:27.986Z,84.28
2019-03-04T22:44:27.964Z,83.42
2019-03-04T22:45:27.979Z,83.52
2019-03-04T22:46:27.954Z,83.62
2019-03-04T22:47:27.952Z,82.76
2019-03-04T22:48:27.935Z,82.51
2019-03-04T22:49:27.919Z,82.28
2019-03-04T22:50:27.921Z,82.19
2019-03-04T22:51:27.904Z,82.28
2019-03-04T22:52:27.895Z,81.62
2019-03-04T22:53:27.889Z,82.19
2019-03-04T22:54:27.877Z,81.52
2019-03-04T22:55:27.891Z,81.62
2019-03-04T22:56:27.868Z,81.62
2019-03-04T22:57:27.851Z,81.62
2019-03-04T22:58:29.038Z,81.62
2019-03-04T22:59:27.842Z,80.95
2019-03-04T23:00:27.835Z,80.95
2019-03-04T23:01:27.822Z,81.05
2019-03-04T23:02:27.808Z,80.95
2019-03-04T23:03:27.803Z,81.05
2019-03-04T23:04:27.798Z,81.62
2019-03-04T23:05:27.789Z,81.62
2019-03-04T23:06:27.783Z,81.24
2019-03-04T23:07:27.761Z,81.05
2019-03-04T23:08:27.766Z,80.95
2019-03-04T23:09:27.748Z,81.05
2019-03-04T23:10:27.749Z,81.33
2019-03-04T23:11:27.751Z,81.52
2019-03-04T23:12:27.732Z,81.33
2019-03-04T23:13:27.708Z,81.43
2019-03-04T23:14:27.707Z,81.52
2019-03-04T23:15:27.699Z,80.86
2019-03-04T23:16:27.693Z,80.95
2019-03-04T23:17:27.684Z,81.33
2019-03-04T23:18:27.686Z,81.33
2019-03-04T23:19:27.664Z,81.62
2019-03-04T23:20:27.652Z,82.00
2019-03-04T23:21:27.649Z,82.00
2019-03-04T23:22:27.635Z,81.71
2019-03-04T23:23:27.634Z,81.90
2019-03-04T23:24:27.620Z,81.90
2019-03-04T23:25:27.612Z,82.28
2019-03-04T23:26:27.610Z,82.09
2019-03-04T23:27:27.598Z,82.00
2019-03-04T23:28:27.588Z,82.00
2019-03-04T23:29:27.581Z,81.62
2019-03-04T23:30:27.569Z,82.09
2019-03-04T23:31:27.559Z,82.38
2019-03-04T23:32:27.552Z,82.19
2019-03-04T23:33:27.538Z,82.28
2019-03-04T23:34:27.535Z,82.38
2019-03-04T23:35:27.525Z,82.19
2019-03-04T23:36:27.517Z,82.48
2019-03-04T23:37:27.504Z,82.76
2019-03-04T23:38:27.493Z,82.86
2019-03-04T23:39:27.488Z,82.76
2019-03-04T23:40:27.484Z,82.86
2019-03-04T23:41:27.477Z,82.57
2019-03-04T23:42:27.464Z,83.14
2019-03-04T23:43:27.456Z,83.42
2019-03-04T23:44:27.449Z,83.33
2019-03-04T23:45:27.431Z,83.42
2019-03-04T23:46:27.423Z,84.00
2019-03-04T23:47:27.449Z,83.81
2019-03-04T23:48:27.426Z,84.28
2019-03-04T23:49:27.399Z,84.19
2019-03-04T23:50:27.396Z,84.00
2019-03-04T23:51:27.382Z,83.90
2019-03-04T23:52:27.379Z,84.66
2019-03-04T23:53:27.367Z,84.00
2019-03-04T23:54:27.368Z,84.28
2019-03-04T23:55:27.345Z,84.19
2019-03-04T23:56:27.332Z,84.09
2019-03-04T23:57:27.345Z,84.47
2019-03-04T23:58:27.320Z,84.56
2019-03-04T23:59:27.311Z,84.66
